Adjuster:

Genres

Foreign Language

1980-Present
Only overseas-produced features counted. Re-issues excluded.



Rows: #1-100, #101-200, #201-300, #301-400, #401-500, #501-600, #601-700, #701-800, #801-900, #901-1000, #1001-1100, #1101-1200, #1201-1300, #1301-1400, #1401-1500, #1501-1600, #1601-1700, #1701-1722
RowRankTitle (click to view)StudioLifetime Gross / TheatersOpening / TheatersDate
1 1617 The Other World Artma $2,494 1 $1,119 1 8/6/04
2 179 Intimate Strangers
(France)
ParC $2,110,589 94 $55,836 5 7/30/04
3 439 Rosenstrasse IDP $734,519 24 n/a - 7/30/04
4 1087 Proteus Strand $62,031 3 $10,047 2 7/30/04
5 1105 Gozu Path. $58,202 4 $5,030 1 7/30/04
6 1122 RRRrrrr!!! Chri. $54,361 23 $54,361 23 7/30/04
7 1355 Transfixed Pict. $17,361 1 $4,268 1 7/30/04
8 1667 Tasuma: The Fighter Artma $479 1 $281 1 7/30/04
9 320 Zatoichi: The Blind Swordsman
(Japan)
Mira. $1,118,163 55 $61,104 4 7/23/04
10 651 Ju-On: The Grudge
(Japan)
Vita. $325,680 11 $25,446 3 7/23/04
11 1338 Asambhav Eros $19,504 15 $19,504 15 7/23/04
12 1636 Free Radicals Kino $1,443 1 $1,443 1 7/23/04
13 48 Maria Full of Grace FL $6,529,624 127 $139,066 7 7/16/04
14 878 Zhou Yu's Train SPC $142,562 12 $22,933 6 7/16/04
15 1063 The Inheritance CGld $68,215 2 $3,270 1 7/9/04
16 955 Bonjour M. Shlomi Strand $107,585 6 $5,999 3 7/2/04
17 1039 Deserted Station FRun $74,791 1 $841 1 7/2/04
18 1632 The Road to Love Arab $1,714 1 $867 1 6/30/04
19 947 Deewaar Eros $111,423 41 $111,423 41 6/25/04
20 431 Lakshya UTV $753,600 59 $380,000 59 6/18/04
21 530 Facing Windows SPC $543,354 27 $36,061 7 6/18/04
22 1203 Father and Son Wells $39,291 3 $4,541 1 6/18/04
23 1011 Dev Eros $84,728 35 $84,728 35 6/11/04
24 415 Hum Tum Yash $796,641 43 $275,882 43 5/28/04
25 558 Strayed
(France)
Wells $482,757 29 $19,531 2 5/14/04
26 698 Valentin Mira. $275,968 15 $14,048 2 5/7/04
27 221 Main Hoon Na
(India)
Eros $1,747,060 79 $704,651 79 4/30/04
28 521 Twilight Samurai
(Japan)
Emp. $559,765 16 $8,573 1 4/23/04
29 239 I'm Not Scared
(Italy)
Mira. $1,615,328 63 $48,292 4 4/9/04
30 156 Spring, Summer, Fall, Winter... and Spring SPC $2,380,788 74 $42,561 6 4/2/04
31 554 Shaolin Soccer
(Hong Kong)
Mira. $489,600 14 $39,167 6 4/2/04
32 1480 I'll Sing for You FRun $9,425 1 $1,225 1 3/26/04
33 149 Bon Voyage SPC $2,503,286 94 $27,480 1 3/19/04
34 986 Distant NYer $96,293 2 $11,280 2 3/12/04
35 1200 La Vie Promise
(France)
Emp. $40,029 2 $6,761 1 3/5/04
36 91 Good Bye, Lenin!
(Germany)
SPC $4,064,200 125 $57,968 6 2/27/04
37 1600 Abouna Leis. $3,290 1 $2,350 1 2/20/04
38 1046 The Seagull's Laughter CGld $72,527 3 $7,791 2 2/13/04
39 1279 After the Life: Trilogy 3 Magn. $27,256 3 $5,198 1 2/13/04
40 291 Osama UA $1,270,904 35 $51,969 4 2/6/04
41 1162 An Amazing Couple: Trilogy 2 Magn. $47,806 2 $8,572 1 2/6/04
42 1070 On the Run: Trilogy 1 Magn. $65,172 4 $8,653 1 1/30/04
43 1382 Millennium Mambo Palm $14,904 1 $4,619 1 12/31/03
44 773 Postmen in the Mountains Shad. $203,975 7 $2,334 1 12/25/03
45 953 Il Cuore Altrove Ode. $108,954 8 $20,107 8 12/19/03
46 1154 Munnabhai Mbbs Eros $48,772 17 $48,772 17 12/19/03
47 133 Monsieur Ibrahim
(France)
SPC $2,823,890 92 $53,174 7 12/3/03
48 200 Nez Rouge Chri. $2,004,814 90 $217,000 32 11/28/03
49 202 Kal Ho Naa Ho Yash $1,991,922 52 $758,211 52 11/26/03
50 1478 El Bonaerense Men. $9,470 1 $5,550 1 11/26/03
51 1643 El Leyton Cn4 $1,332 1 $1,332 1 11/21/03
52 1127 Hukkle Shad. $53,715 4 $2,104 1 11/14/03
53 1431 Love Forbidden Strand $11,421 1 $4,075 1 11/7/03
54 150 Bon Voyage (Canada) TVA $2,503,286 16 $38,682 16 10/17/03
55 802 The Flower of Evil Palm $182,163 16 $12,419 2 10/10/03
56 1056 Small Voices Sml.Isld $69,739 6 $15,166 6 10/10/03
57 197 Sur le Seuil Ode. $2,014,071 61 $514,762 61 10/3/03
58 335 Baghban Eros $1,058,803 50 $345,041 50 10/3/03
59 1034 So Close Strand $76,584 11 $31,702 11 9/12/03
60 746 Kuch Naa Kaho Eros $224,831 32 $92,197 32 9/5/03
61 939 The Other Side of the Bed Sun. $113,543 10 $41,597 10 8/29/03
62 987 Autumn Spring First $96,269 5 $10,046 2 8/22/03
63 1029 Don't Tempt Me First $77,858 5 $15,271 3 8/22/03
64 1450 Rana's Wedding Arab $10,604 1 $3,099 1 8/22/03
65 596 Hawayein Meg. $409,978 5 $37,812 5 8/15/03
66 469 Koi... Mil Gaya Yash $671,372 55 $274,851 55 8/8/03
67 1030 The Princess Blade ADV $77,567 7 $12,618 4 8/8/03
68 1238 Fanfan la Tulipe Chri. $32,686 19 $32,686 19 8/8/03
69 1380 Seaside FRun $15,290 1 $4,736 1 8/6/03
70 708 Lucia, Lucia FoxS $269,586 53 $70,773 49 7/25/03
71 1254 The Sea is Watching SRep $30,577 5 $10,500 5 7/18/03
72 566 The Housekeeper Palm $467,288 24 $42,083 6 7/11/03
73 726 The Cuckoo SPC $243,936 14 $16,473 6 7/11/03
74 1441 Gasoline Strand $11,023 2 $2,885 1 7/2/03
75 299 Main Prem Ki Diwani Hoon
(india)
Raj. $1,232,228 60 $672,891 60 6/27/03
76 574 The Legend of Suriyothai SPC $454,736 22 $45,904 7 6/20/03
77 404 Chalte Chalte Eros $836,225 61 $150,000 22 6/13/03
78 923 Tycoon (2003)
(Russia)
NYer $123,159 3 $13,342 2 6/13/03
79 546 The Eye (2003) Palm $512,049 23 $62,062 13 6/6/03
80 314 Together UA $1,151,941 47 $69,209 6 5/30/03
81 551 Taxi 3 Chri. $497,208 37 $288,000 37 5/30/03
82 957 Bhoot Spk $106,774 19 $60,000 19 5/30/03
83 330 Respiro SPC $1,072,834 32 $71,677 7 5/23/03
84 841 Friday Night Wells $156,918 5 $9,381 3 5/23/03
85 98 L'Auberge Espagnole
(France)
FoxS $3,897,799 100 $59,315 11 5/16/03
86 675 Armaan: The Desire Eros $301,010 50 $225,684 50 5/16/03
87 1280 Everybody Says I'm Fine! Pan. $27,225 3 $3,860 3 5/16/03
88 146 Man on the Train
(France)
ParC $2,542,020 85 $41,138 5 5/9/03
89 792 Le Papillon Chris. $189,144 12 $31,200 12 5/9/03
90 880 Marooned in Iraq Wells $141,243 6 $6,696 1 4/25/03
91 1108 House of Fools ParC $57,862 8 $7,246 3 4/25/03
92 799 Lilya 4Ever NM $184,023 7 $33,731 4 4/18/03
93 686 The Hero - Love Story of a Spy VidS $285,394 23 $130,200 21 4/11/03
94 1518 Waiting for Happiness
(Mauritania)
NYer $7,406 1 $1,982 1 4/5/03
95 377 The Man Without a Past
(Finland)
SPC $921,847 31 $23,281 2 4/4/03
96 1043 Cet Amour-La NYer $72,844 2 $11,311 2 4/2/03
97 800 The Girl from Paris FPh $183,266 5 $8,280 1 3/21/03
98 1310 Fulltime Killer Palm $23,124 5 $3,676 1 3/21/03
99 1251 Under the Skin of the City Magn. $30,666 3 $7,412 2 3/14/03
100 52 Nowhere in Africa
(Germany)
Zeit. $6,180,200 78 $22,070 2 3/7/03
TOTAL (All Movies):$1,806,344,357----
AVERAGE (All Movies):$1,083,59045$127,98425-
TOTAL
(Wide Releases Only):
$444,621,727----
AVERAGE
(Wide Releases Only):
$26,154,2191,313$8,308,2201,585-
Rows: #1-100, #101-200, #201-300, #301-400, #401-500, #501-600, #601-700, #701-800, #801-900, #901-1000, #1001-1100, #1101-1200, #1201-1300, #1301-1400, #1401-1500, #1501-1600, #1601-1700, #1701-1722


If there are any movies that you think should be on this list, e-mail us at mail@boxofficemojo.com.




UPCOMING RELEASES
Title (click to view)StudioRelease Date
OSS 117: Lost in Rio MBox 5/7/10
Women Who Flirt (Sajiao Nvren) CL 11/26/14
Once Upon a Time Veronica (Era uma vez eu, Veronica) BWP 11/28/14
Zero Motivation Zeit. 12/3/14
A Tale of Winter (Conte d'hiver) BWP 12/19/14
Beloved Sisters MBox 12/24/14
Two Days, One Night IFC 12/24/14
Leviathan (2014) SPC 12/31/14
It's All So Quiet (Boven is het stil) BWP 1/9/15
R100 Drft. 1/23/15
Mommy RAtt. 1/23/15
Timbuktu Cohen 1/28/15
Coming Home (2015) SPC 1/30/15
Wild Tales SPC 2/20/15
Johanna
(Hungary)
Tar. TBD
Abel LGF TBD
When a Wolf Falls in Love with a Sheep N/A TBD
Jolly LLB FIP TBD
Happy New Year (2014) N/A TBD